AQR weather

Atoka Municipal Airport
Atoka, Oklahoma, United States

Public forecast

Using degrees Fahrenheit for public forecast. Weather courtesy of forecast.io.

Current aviation weather report (METAR) for Atoka Municipal Airport

Retrieved 2020/01/26 20:35 UTC (0 seconds ago):

KAQR 262035Z AUTO 00000KT 10SM OVC006 10/10 A3003 RMK AO2

Closest aviation forecast (TAF) to Atoka Municipal Airport

Closest forecast is Mc Alester Regional Airport, 34.2 nm (63.3 km) NNE. Retrieved 2020/01/26 18:39 UTC (2 hours ago):

TAF KMLC 261737Z 2618/2718 00000KT P6SM BKN012 OVC020 FM262000 33004KT P6SM BKN030 FM262300 33004KT P6SM FEW250 FM270900 VRB03KT 1SM BR FEW006 BKN010 FM271400 18004KT P6SM SCT250